createdAt,value
2022-11-20T00:02:11.875Z,131.70
2022-11-20T00:12:15.915Z,159.80
2022-11-20T00:22:19.687Z,151.30
2022-11-20T00:32:23.582Z,146.40
2022-11-20T00:42:27.848Z,136.60
2022-11-20T00:52:32.217Z,146.40
2022-11-20T01:02:36.189Z,142.70
2022-11-20T01:12:40.059Z,120.80
2022-11-20T01:22:44.029Z,163.30
2022-11-20T01:32:47.899Z,147.60
2022-11-20T01:43:24.110Z,119.30
2022-11-20T01:53:34.840Z,133.70
2022-11-20T02:03:38.903Z,119.10
2022-11-20T02:13:45.850Z,106.70
2022-11-20T02:24:07.998Z,109.30
2022-11-20T02:34:11.590Z,117.20
2022-11-20T02:44:15.672Z,110.00
2022-11-20T02:54:19.633Z,107.40
2022-11-20T03:04:23.420Z,104.80
2022-11-20T03:14:27.278Z,101.50
2022-11-20T03:24:31.248Z,93.90
2022-11-20T03:34:35.019Z,87.30
2022-11-20T03:44:38.884Z,79.50
2022-11-20T03:54:42.642Z,97.90
2022-11-20T04:04:46.406Z,86.50
2022-11-20T04:14:50.087Z,76.30
2022-11-20T04:24:53.942Z,82.50
2022-11-20T04:34:57.629Z,72.50
2022-11-20T04:45:01.579Z,54.70
2022-11-20T04:55:05.742Z,82.00
2022-11-20T05:05:09.825Z,70.20
2022-11-20T05:15:13.499Z,67.50
2022-11-20T05:25:17.470Z,72.90
2022-11-20T05:35:21.096Z,70.70
2022-11-20T05:45:24.735Z,60.90
2022-11-20T05:55:29.309Z,58.60
2022-11-20T06:05:34.999Z,75.90
2022-11-20T06:15:38.638Z,76.90
2022-11-20T06:25:44.067Z,58.00
2022-11-20T06:35:47.884Z,63.10
2022-11-20T06:45:56.109Z,69.00
2022-11-20T06:56:00.377Z,71.80
2022-11-20T07:06:05.331Z,67.30
2022-11-20T07:16:10.261Z,79.40
2022-11-20T07:26:14.361Z,72.30
2022-11-20T07:36:18.091Z,73.00
2022-11-20T07:46:22.176Z,81.80
2022-11-20T07:56:25.761Z,99.20
2022-11-20T08:06:29.808Z,90.60
2022-11-20T08:16:33.578Z,82.40
2022-11-20T08:26:39.175Z,88.30
2022-11-20T08:36:42.857Z,73.30
2022-11-20T08:46:48.395Z,65.40
2022-11-20T08:56:53.276Z,58.30
2022-11-20T09:06:57.423Z,60.70
2022-11-20T09:17:01.527Z,52.70
2022-11-20T09:27:06.496Z,49.90
2022-11-20T09:37:10.559Z,46.20
2022-11-20T09:47:32.440Z,61.90
2022-11-20T09:57:39.682Z,62.30
2022-11-20T10:07:58.150Z,52.10
2022-11-20T10:18:26.995Z,59.70
2022-11-20T10:28:53.962Z,44.70
2022-11-20T10:39:27.564Z,44.50
2022-11-20T10:49:35.236Z,52.10
2022-11-20T11:00:06.643Z,51.40
2022-11-20T11:10:24.321Z,49.80
2022-11-20T11:20:28.683Z,51.60
2022-11-20T11:30:44.171Z,47.20
2022-11-20T11:40:48.349Z,57.20
2022-11-20T11:50:53.399Z,49.70
2022-11-20T12:01:21.566Z,48.80
2022-11-20T12:11:46.016Z,55.50
2022-11-20T12:22:02.513Z,51.60
2022-11-20T12:32:39.040Z,54.10
2022-11-20T12:43:28.755Z,64.30
2022-11-20T12:53:39.803Z,77.40
2022-11-20T13:03:59.482Z,82.30
2022-11-20T13:14:24.555Z,71.50
2022-11-20T13:24:31.534Z,65.50
2022-11-20T13:34:37.719Z,61.90
2022-11-20T13:44:53.930Z,79.40
2022-11-20T13:55:14.465Z,79.30
2022-11-20T14:05:23.594Z,71.20
2022-11-20T14:15:33.101Z,82.70
2022-11-20T14:25:39.049Z,84.90
2022-11-20T14:35:55.454Z,212.40
2022-11-20T14:46:10.127Z,95.60
2022-11-20T14:56:25.840Z,126.00
2022-11-20T15:06:33.181Z,91.90
2022-11-20T15:16:38.581Z,112.60
2022-11-20T15:26:44.516Z,99.90
2022-11-20T15:36:50.522Z,94.20
2022-11-20T15:46:56.742Z,124.00
2022-11-20T15:57:02.965Z,144.10
2022-11-20T16:07:08.466Z,124.90
2022-11-20T16:17:14.794Z,141.00
2022-11-20T16:27:20.310Z,111.10
2022-11-20T16:37:25.301Z,122.50
2022-11-20T16:47:30.323Z,144.30
2022-11-20T16:57:35.851Z,137.90
2022-11-20T17:07:41.091Z,139.10
2022-11-20T17:17:49.054Z,176.20
2022-11-20T17:27:55.339Z,149.90
2022-11-20T17:38:00.380Z,118.70
2022-11-20T17:48:06.270Z,89.80
2022-11-20T17:58:11.175Z,73.40
2022-11-20T18:08:16.384Z,82.90
2022-11-20T18:18:20.759Z,80.60
2022-11-20T18:28:27.510Z,85.30
2022-11-20T18:38:32.897Z,62.20
2022-11-20T18:48:39.576Z,80.60
2022-11-20T18:58:44.731Z,64.90
2022-11-20T19:08:50.865Z,69.40
2022-11-20T19:18:57.272Z,64.80
2022-11-20T19:29:05.259Z,56.30
2022-11-20T19:39:12.106Z,62.10
2022-11-20T19:49:17.689Z,75.20
2022-11-20T19:59:23.385Z,59.80
2022-11-20T20:09:31.085Z,61.50
2022-11-20T20:19:37.796Z,97.60
2022-11-20T20:29:43.095Z,92.50
2022-11-20T20:39:48.704Z,82.00
2022-11-20T20:49:53.291Z,77.50
2022-11-20T20:59:57.778Z,81.50
2022-11-20T21:10:04.633Z,73.90
2022-11-20T21:20:30.267Z,70.70
2022-11-20T21:30:35.502Z,74.90
2022-11-20T21:40:40.163Z,125.80
2022-11-20T21:50:43.983Z,67.90
2022-11-20T22:00:49.687Z,80.50
2022-11-20T22:10:59.912Z,96.40
2022-11-20T22:21:07.518Z,67.10
2022-11-20T22:31:12.178Z,78.40
2022-11-20T22:41:23.446Z,113.70
2022-11-20T22:51:33.434Z,78.60
2022-11-20T23:01:38.028Z,79.70
2022-11-20T23:11:41.770Z,83.40
2022-11-20T23:21:45.602Z,71.60
2022-11-20T23:31:49.339Z,71.00
2022-11-20T23:41:53.036Z,57.90
2022-11-20T23:51:56.795Z,44.10
